createdAt,value
2018-12-16T00:03:21.246Z,63.40
2018-12-16T00:08:24.570Z,63.37
2018-12-16T00:13:28.098Z,63.48
2018-12-16T00:18:31.594Z,63.48
2018-12-16T00:23:35.137Z,63.35
2018-12-16T00:28:38.636Z,63.40
2018-12-16T00:33:42.286Z,63.44
2018-12-16T00:38:45.713Z,63.62
2018-12-16T00:43:49.138Z,63.24
2018-12-16T00:48:52.756Z,63.54
2018-12-16T00:53:56.200Z,63.83
2018-12-16T00:58:59.637Z,63.80
2018-12-16T01:04:03.025Z,63.54
2018-12-16T01:09:08.006Z,63.48
2018-12-16T01:14:11.450Z,63.85
2018-12-16T01:19:14.964Z,63.83
2018-12-16T01:24:18.451Z,63.54
2018-12-16T01:29:21.979Z,64.11
2018-12-16T01:34:25.449Z,63.60
2018-12-16T01:39:29.157Z,63.86
2018-12-16T01:44:32.571Z,64.07
2018-12-16T01:49:35.976Z,64.00
2018-12-16T01:54:39.351Z,63.64
2018-12-16T01:59:42.953Z,63.57
2018-12-16T02:04:46.373Z,64.03
2018-12-16T02:09:49.775Z,63.68
2018-12-16T02:14:53.290Z,63.82
2018-12-16T02:19:56.771Z,64.09
2018-12-16T02:25:00.115Z,63.78
2018-12-16T02:30:09.080Z,63.82
2018-12-16T02:35:12.587Z,63.75
2018-12-16T02:40:15.942Z,64.42
2018-12-16T02:45:19.505Z,64.42
2018-12-16T02:50:22.948Z,63.94
2018-12-16T02:55:26.417Z,64.33
2018-12-16T03:00:29.776Z,64.27
2018-12-16T03:05:33.161Z,64.44
2018-12-16T03:10:36.515Z,64.29
2018-12-16T03:15:39.869Z,64.49
2018-12-16T03:20:43.305Z,64.30
2018-12-16T03:25:46.729Z,63.84
2018-12-16T03:30:50.207Z,64.13
2018-12-16T03:35:53.712Z,64.30
2018-12-16T03:40:57.222Z,64.61
2018-12-16T03:46:00.770Z,64.19
2018-12-16T03:51:04.397Z,64.41
2018-12-16T03:56:07.780Z,64.78
2018-12-16T04:01:11.207Z,64.71
2018-12-16T04:06:14.558Z,64.28
2018-12-16T04:11:17.939Z,64.27
2018-12-16T04:16:21.401Z,64.45
2018-12-16T04:21:24.829Z,64.52
2018-12-16T04:26:28.192Z,64.43
2018-12-16T04:31:31.548Z,64.77
2018-12-16T04:36:37.875Z,64.43
2018-12-16T04:41:41.267Z,64.52
2018-12-16T04:46:44.610Z,64.77
2018-12-16T04:51:48.117Z,64.82
2018-12-16T04:56:51.540Z,64.63
2018-12-16T05:01:54.999Z,65.02
2018-12-16T05:06:58.362Z,64.71
2018-12-16T05:12:01.758Z,65.19
2018-12-16T05:17:05.229Z,65.22
2018-12-16T05:22:08.642Z,65.06
2018-12-16T05:27:12.064Z,65.19
2018-12-16T05:32:15.454Z,65.29
2018-12-16T05:37:18.823Z,65.13
2018-12-16T05:42:22.299Z,65.27
2018-12-16T05:47:25.708Z,65.67
2018-12-16T05:52:29.143Z,65.38
2018-12-16T05:57:32.598Z,65.47
2018-12-16T06:02:35.955Z,65.73
2018-12-16T06:07:39.344Z,65.65
2018-12-16T06:12:42.876Z,65.78
2018-12-16T06:17:46.558Z,66.34
2018-12-16T06:22:50.079Z,66.33
2018-12-16T06:27:53.479Z,66.68
2018-12-16T06:32:56.838Z,66.57
2018-12-16T06:38:00.254Z,66.40
2018-12-16T06:43:03.741Z,66.52
2018-12-16T06:48:07.174Z,66.63
2018-12-16T06:53:10.550Z,66.95
2018-12-16T06:58:13.916Z,67.18
2018-12-16T07:03:17.366Z,67.22
2018-12-16T07:08:20.785Z,67.93
2018-12-16T07:13:24.165Z,67.73
2018-12-16T07:18:27.553Z,68.40
2018-12-16T07:23:30.929Z,68.98
2018-12-16T07:28:34.330Z,68.83
2018-12-16T07:33:37.674Z,69.24
2018-12-16T07:38:41.196Z,69.65
2018-12-16T07:43:44.583Z,69.85
2018-12-16T07:48:48.143Z,69.42
2018-12-16T07:53:51.520Z,69.27
2018-12-16T07:58:55.056Z,68.88
2018-12-16T08:03:58.411Z,69.22
2018-12-16T08:09:01.807Z,39.82
2018-12-16T08:14:05.169Z,39.98
2018-12-16T08:19:08.770Z,43.86
2018-12-16T08:24:12.339Z,45.52
2018-12-16T08:29:15.789Z,46.22
2018-12-16T08:34:19.149Z,47.89
2018-12-16T08:39:22.518Z,49.03
2018-12-16T08:44:25.965Z,50.63
2018-12-16T08:49:29.373Z,51.13
2018-12-16T08:54:33.598Z,52.35
2018-12-16T08:59:37.013Z,53.52
2018-12-16T09:04:40.375Z,54.60
2018-12-16T09:09:44.031Z,54.91
2018-12-16T09:14:47.494Z,55.97
2018-12-16T09:19:51.032Z,56.57
2018-12-16T09:24:54.537Z,57.46
2018-12-16T09:29:58.048Z,57.58
2018-12-16T09:35:01.530Z,58.53
2018-12-16T09:40:06.845Z,58.49
2018-12-16T09:45:10.452Z,59.44
2018-12-16T09:50:13.987Z,59.72
2018-12-16T09:55:17.509Z,59.15
2018-12-16T10:00:20.938Z,59.28
2018-12-16T10:05:24.374Z,59.92
2018-12-16T10:10:27.883Z,60.29
2018-12-16T10:15:31.297Z,60.64
2018-12-16T10:20:34.894Z,60.55
2018-12-16T10:25:38.477Z,60.78
2018-12-16T10:30:41.979Z,61.05
2018-12-16T10:35:46.563Z,61.24
2018-12-16T10:40:50.023Z,61.44
2018-12-16T10:45:53.472Z,61.79
2018-12-16T10:50:56.848Z,61.66
2018-12-16T10:56:00.309Z,62.11
2018-12-16T11:01:09.255Z,61.77
2018-12-16T11:06:12.691Z,61.85
2018-12-16T11:11:16.254Z,61.06
2018-12-16T11:16:19.817Z,60.79
2018-12-16T11:21:23.279Z,60.72
2018-12-16T11:26:26.646Z,60.31
2018-12-16T11:31:30.078Z,60.36
2018-12-16T11:36:33.622Z,60.20
2018-12-16T11:41:37.085Z,60.41
2018-12-16T11:46:40.566Z,60.89
2018-12-16T11:51:44.142Z,60.90
2018-12-16T11:56:47.551Z,60.54
2018-12-16T12:01:51.058Z,61.02
2018-12-16T12:06:54.622Z,60.75
2018-12-16T12:11:58.042Z,60.61
2018-12-16T12:17:01.450Z,61.00
2018-12-16T12:22:04.994Z,61.48
2018-12-16T12:27:08.351Z,60.82
2018-12-16T12:32:11.706Z,61.00
2018-12-16T12:37:15.048Z,59.60
2018-12-16T12:42:18.486Z,59.71
2018-12-16T12:47:21.877Z,58.91
2018-12-16T12:52:25.316Z,51.25
2018-12-16T12:57:29.111Z,49.59
2018-12-16T13:02:32.550Z,46.44
2018-12-16T13:07:35.923Z,40.99
2018-12-16T13:12:39.582Z,45.98
2018-12-16T13:17:43.055Z,46.58
2018-12-16T13:22:46.562Z,47.12
2018-12-16T13:27:50.037Z,48.15
2018-12-16T13:32:53.422Z,48.87
2018-12-16T13:37:56.867Z,50.03
2018-12-16T13:43:00.549Z,50.69
2018-12-16T13:48:04.232Z,51.00
2018-12-16T13:53:07.645Z,51.68
2018-12-16T13:58:11.062Z,52.08
2018-12-16T14:03:14.545Z,52.57
2018-12-16T14:08:18.167Z,53.15
2018-12-16T14:13:21.667Z,53.87
2018-12-16T14:18:25.034Z,54.11
2018-12-16T14:23:28.496Z,54.48
2018-12-16T14:28:31.886Z,54.62
2018-12-16T14:33:35.341Z,54.48
2018-12-16T14:38:38.836Z,55.31
2018-12-16T14:43:42.223Z,55.12
2018-12-16T14:48:45.662Z,55.15
2018-12-16T14:53:49.066Z,55.69
2018-12-16T14:58:52.416Z,55.43
2018-12-16T15:03:55.806Z,55.68
2018-12-16T15:08:59.389Z,56.13
2018-12-16T15:14:02.986Z,55.98
2018-12-16T15:19:06.354Z,56.57
2018-12-16T15:24:09.807Z,56.21
2018-12-16T15:29:13.408Z,56.88
2018-12-16T15:34:16.894Z,57.19
2018-12-16T15:39:20.472Z,56.99
2018-12-16T15:44:24.850Z,57.28
2018-12-16T15:49:28.356Z,57.29
2018-12-16T15:54:32.030Z,57.38
2018-12-16T15:59:36.884Z,57.45
2018-12-16T16:04:40.625Z,57.49
2018-12-16T16:09:44.365Z,58.12
2018-12-16T16:14:48.038Z,57.84
2018-12-16T16:19:51.710Z,58.55
2018-12-16T16:24:55.209Z,58.51
2018-12-16T16:29:59.010Z,58.77
2018-12-16T16:35:03.032Z,59.20
2018-12-16T16:40:08.086Z,59.35
2018-12-16T16:45:11.881Z,59.38
2018-12-16T16:50:15.702Z,59.50
2018-12-16T16:55:20.383Z,59.06
2018-12-16T17:00:24.079Z,59.41
2018-12-16T17:05:30.017Z,59.22
2018-12-16T17:10:34.089Z,59.08
2018-12-16T17:15:37.807Z,59.08
2018-12-16T17:20:41.636Z,59.29
2018-12-16T17:25:48.462Z,59.60
2018-12-16T17:30:50.934Z,59.17
2018-12-16T17:35:54.356Z,59.51
2018-12-16T17:40:57.773Z,59.26
2018-12-16T17:46:01.289Z,59.81
2018-12-16T17:51:04.783Z,59.39
2018-12-16T17:56:08.307Z,59.38
2018-12-16T18:01:11.771Z,59.28
2018-12-16T18:06:15.463Z,59.73
2018-12-16T18:11:19.037Z,59.65
2018-12-16T18:16:22.410Z,59.37
2018-12-16T18:21:26.280Z,59.34
2018-12-16T18:26:29.882Z,59.69
2018-12-16T18:31:33.428Z,60.09
2018-12-16T18:36:37.355Z,60.40
2018-12-16T18:41:41.453Z,60.96
2018-12-16T18:46:45.176Z,61.01
2018-12-16T18:51:48.837Z,61.63
2018-12-16T18:56:52.627Z,61.09
2018-12-16T19:01:56.242Z,61.53
2018-12-16T19:07:00.033Z,61.53
2018-12-16T19:12:03.818Z,61.12
2018-12-16T19:17:07.406Z,61.15
2018-12-16T19:22:10.985Z,61.06
2018-12-16T19:27:14.574Z,60.93
2018-12-16T19:32:18.096Z,61.48
2018-12-16T19:37:21.703Z,61.27
2018-12-16T19:42:25.474Z,61.55
2018-12-16T19:47:29.116Z,61.08
2018-12-16T19:52:32.827Z,61.53
2018-12-16T19:57:36.559Z,60.95
2018-12-16T20:02:40.278Z,60.88
2018-12-16T20:07:43.973Z,61.38
2018-12-16T20:12:47.681Z,60.94
2018-12-16T20:17:51.355Z,61.49
2018-12-16T20:22:55.063Z,61.41
2018-12-16T20:27:58.875Z,61.12
2018-12-16T20:33:02.552Z,61.39
2018-12-16T20:38:06.346Z,61.43
2018-12-16T20:43:10.179Z,60.89
2018-12-16T20:48:14.395Z,61.60
2018-12-16T20:53:18.227Z,60.86
2018-12-16T20:58:21.834Z,61.18
2018-12-16T21:03:25.552Z,61.01
2018-12-16T21:08:29.186Z,61.04
2018-12-16T21:13:38.102Z,61.43
2018-12-16T21:18:41.990Z,61.25
2018-12-16T21:23:45.744Z,61.43
2018-12-16T21:28:49.389Z,61.17
2018-12-16T21:33:52.910Z,61.53
2018-12-16T21:38:56.684Z,61.10
2018-12-16T21:44:00.327Z,61.27
2018-12-16T21:49:03.954Z,61.17
2018-12-16T21:54:09.078Z,61.20
2018-12-16T21:59:12.629Z,61.36
2018-12-16T22:04:16.232Z,61.17
2018-12-16T22:09:19.835Z,61.57
2018-12-16T22:14:23.496Z,61.20
2018-12-16T22:19:27.150Z,61.31
2018-12-16T22:24:30.724Z,61.48
2018-12-16T22:29:34.351Z,61.45
2018-12-16T22:34:37.865Z,61.29
2018-12-16T22:39:41.479Z,61.31
2018-12-16T22:44:45.199Z,61.14
2018-12-16T22:49:48.776Z,60.91
2018-12-16T22:54:52.140Z,61.22
2018-12-16T22:59:55.607Z,61.05
2018-12-16T23:04:59.108Z,61.48
2018-12-16T23:10:02.686Z,61.64
2018-12-16T23:15:07.038Z,61.72
2018-12-16T23:20:19.608Z,61.67
2018-12-16T23:25:22.995Z,61.32
2018-12-16T23:30:26.541Z,61.76
2018-12-16T23:35:29.883Z,61.57
2018-12-16T23:40:33.433Z,61.85
2018-12-16T23:45:36.885Z,61.38
2018-12-16T23:50:40.283Z,62.09
2018-12-16T23:55:43.635Z,61.69
